sensor_id;sensor_type;location;lat;lon;timestamp;temperature;humidity
47590;DHT22;33316;52.298;9.056;2024-03-08T00:02:07;3.20;99.10
47590;DHT22;33316;52.298;9.056;2024-03-08T00:04:34;3.20;99.10
47590;DHT22;33316;52.298;9.056;2024-03-08T00:07:01;3.20;99.20
47590;DHT22;33316;52.298;9.056;2024-03-08T00:09:27;3.20;99.20
47590;DHT22;33316;52.298;9.056;2024-03-08T00:11:56;3.20;99.30
47590;DHT22;33316;52.298;9.056;2024-03-08T00:14:23;3.20;99.30
47590;DHT22;33316;52.298;9.056;2024-03-08T00:16:50;3.20;99.70
47590;DHT22;33316;52.298;9.056;2024-03-08T00:19:19;3.20;99.40
47590;DHT22;33316;52.298;9.056;2024-03-08T00:21:46;3.20;99.40
47590;DHT22;33316;52.298;9.056;2024-03-08T00:24:13;3.20;99.50
47590;DHT22;33316;52.298;9.056;2024-03-08T00:26:40;3.20;99.50
47590;DHT22;33316;52.298;9.056;2024-03-08T00:29:07;3.20;99.50
47590;DHT22;33316;52.298;9.056;2024-03-08T00:31:34;3.20;99.50
47590;DHT22;33316;52.298;9.056;2024-03-08T00:34:01;3.20;99.40
47590;DHT22;33316;52.298;9.056;2024-03-08T00:36:29;3.20;99.40
47590;DHT22;33316;52.298;9.056;2024-03-08T00:38:56;3.30;99.50
47590;DHT22;33316;52.298;9.056;2024-03-08T00:41:25;3.20;99.40
47590;DHT22;33316;52.298;9.056;2024-03-08T00:43:52;3.20;99.30
47590;DHT22;33316;52.298;9.056;2024-03-08T00:46:19;3.20;99.40
47590;DHT22;33316;52.298;9.056;2024-03-08T00:48:46;3.20;99.30
47590;DHT22;33316;52.298;9.056;2024-03-08T00:51:12;3.20;99.30
47590;DHT22;33316;52.298;9.056;2024-03-08T00:53:42;3.20;99.30
47590;DHT22;33316;52.298;9.056;2024-03-08T00:56:09;3.20;99.30
47590;DHT22;33316;52.298;9.056;2024-03-08T00:58:36;3.20;99.30
47590;DHT22;33316;52.298;9.056;2024-03-08T01:01:04;3.20;99.30
47590;DHT22;33316;52.298;9.056;2024-03-08T01:03:30;3.20;99.30
47590;DHT22;33316;52.298;9.056;2024-03-08T01:05:58;3.20;99.30
47590;DHT22;33316;52.298;9.056;2024-03-08T01:08:26;3.20;99.30
47590;DHT22;33316;52.298;9.056;2024-03-08T01:10:54;3.20;99.30
47590;DHT22;33316;52.298;9.056;2024-03-08T01:13:21;3.10;99.20
47590;DHT22;33316;52.298;9.056;2024-03-08T01:15:48;3.10;99.20
47590;DHT22;33316;52.298;9.056;2024-03-08T01:18:15;3.10;99.30
47590;DHT22;33316;52.298;9.056;2024-03-08T01:20:42;3.10;99.60
47590;DHT22;33316;52.298;9.056;2024-03-08T01:23:09;3.10;99.20
47590;DHT22;33316;52.298;9.056;2024-03-08T01:25:36;3.10;99.20
47590;DHT22;33316;52.298;9.056;2024-03-08T01:28:05;3.10;99.20
47590;DHT22;33316;52.298;9.056;2024-03-08T01:30:32;3.00;99.20
47590;DHT22;33316;52.298;9.056;2024-03-08T01:33:00;3.00;99.20
47590;DHT22;33316;52.298;9.056;2024-03-08T01:35:28;3.00;99.20
47590;DHT22;33316;52.298;9.056;2024-03-08T01:37:54;3.00;99.20
47590;DHT22;33316;52.298;9.056;2024-03-08T01:40:21;3.00;99.20
47590;DHT22;33316;52.298;9.056;2024-03-08T01:42:49;2.90;99.20
47590;DHT22;33316;52.298;9.056;2024-03-08T01:45:17;3.00;99.20
47590;DHT22;33316;52.298;9.056;2024-03-08T01:47:45;2.90;99.20
47590;DHT22;33316;52.298;9.056;2024-03-08T01:50:13;3.00;99.20
47590;DHT22;33316;52.298;9.056;2024-03-08T01:52:42;2.90;99.20
47590;DHT22;33316;52.298;9.056;2024-03-08T01:55:09;2.90;99.20
47590;DHT22;33316;52.298;9.056;2024-03-08T01:57:36;2.90;99.10
47590;DHT22;33316;52.298;9.056;2024-03-08T02:00:04;2.90;99.20
47590;DHT22;33316;52.298;9.056;2024-03-08T02:02:33;2.90;99.20
47590;DHT22;33316;52.298;9.056;2024-03-08T02:05:00;2.90;99.10
47590;DHT22;33316;52.298;9.056;2024-03-08T02:07:27;2.90;99.10
47590;DHT22;33316;52.298;9.056;2024-03-08T02:09:54;2.90;99.10
47590;DHT22;33316;52.298;9.056;2024-03-08T02:12:23;2.90;99.10
47590;DHT22;33316;52.298;9.056;2024-03-08T02:14:51;2.90;99.10
47590;DHT22;33316;52.298;9.056;2024-03-08T02:17:19;2.90;99.10
47590;DHT22;33316;52.298;9.056;2024-03-08T02:19:47;2.90;99.00
47590;DHT22;33316;52.298;9.056;2024-03-08T02:22:15;2.90;99.00
47590;DHT22;33316;52.298;9.056;2024-03-08T02:24:43;2.80;99.00
47590;DHT22;33316;52.298;9.056;2024-03-08T02:27:10;2.80;99.10
47590;DHT22;33316;52.298;9.056;2024-03-08T02:29:38;2.80;99.10
47590;DHT22;33316;52.298;9.056;2024-03-08T02:32:06;2.80;99.10
47590;DHT22;33316;52.298;9.056;2024-03-08T02:34:33;2.80;99.10
47590;DHT22;33316;52.298;9.056;2024-03-08T02:37:00;2.80;99.10
47590;DHT22;33316;52.298;9.056;2024-03-08T02:39:28;2.80;99.10
47590;DHT22;33316;52.298;9.056;2024-03-08T02:41:55;2.80;99.10
47590;DHT22;33316;52.298;9.056;2024-03-08T02:44:21;2.80;99.00
47590;DHT22;33316;52.298;9.056;2024-03-08T02:46:48;2.80;99.00
47590;DHT22;33316;52.298;9.056;2024-03-08T02:49:16;2.70;99.00
47590;DHT22;33316;52.298;9.056;2024-03-08T02:51:42;2.70;99.00
47590;DHT22;33316;52.298;9.056;2024-03-08T02:54:09;2.70;99.10
47590;DHT22;33316;52.298;9.056;2024-03-08T02:56:40;2.70;99.10
47590;DHT22;33316;52.298;9.056;2024-03-08T02:59:07;2.60;99.00
47590;DHT22;33316;52.298;9.056;2024-03-08T03:01:34;2.60;99.00
47590;DHT22;33316;52.298;9.056;2024-03-08T03:04:01;2.60;99.00
47590;DHT22;33316;52.298;9.056;2024-03-08T03:06:28;2.50;98.90
47590;DHT22;33316;52.298;9.056;2024-03-08T03:08:55;2.50;99.00
47590;DHT22;33316;52.298;9.056;2024-03-08T03:11:23;2.40;99.00
47590;DHT22;33316;52.298;9.056;2024-03-08T03:13:51;2.40;99.00
47590;DHT22;33316;52.298;9.056;2024-03-08T03:16:18;2.30;99.00
47590;DHT22;33316;52.298;9.056;2024-03-08T03:18:46;2.30;99.10
47590;DHT22;33316;52.298;9.056;2024-03-08T03:21:13;2.30;99.10
47590;DHT22;33316;52.298;9.056;2024-03-08T03:23:40;2.30;99.10
47590;DHT22;33316;52.298;9.056;2024-03-08T03:26:08;2.20;99.10
47590;DHT22;33316;52.298;9.056;2024-03-08T03:28:36;2.20;99.10
47590;DHT22;33316;52.298;9.056;2024-03-08T03:31:07;2.20;99.20
47590;DHT22;33316;52.298;9.056;2024-03-08T03:33:36;2.20;99.20
47590;DHT22;33316;52.298;9.056;2024-03-08T03:36:04;2.10;99.20
47590;DHT22;33316;52.298;9.056;2024-03-08T03:38:31;2.10;99.30
47590;DHT22;33316;52.298;9.056;2024-03-08T03:41:00;2.10;99.40
47590;DHT22;33316;52.298;9.056;2024-03-08T03:43:35;2.10;99.50
47590;DHT22;33316;52.298;9.056;2024-03-08T03:46:05;2.00;99.60
47590;DHT22;33316;52.298;9.056;2024-03-08T03:48:34;2.00;99.80
47590;DHT22;33316;52.298;9.056;2024-03-08T03:51:00;2.00;99.80
47590;DHT22;33316;52.298;9.056;2024-03-08T03:53:27;2.00;99.90
47590;DHT22;33316;52.298;9.056;2024-03-08T03:55:54;2.00;99.90
47590;DHT22;33316;52.298;9.056;2024-03-08T03:58:21;1.90;99.90
47590;DHT22;33316;52.298;9.056;2024-03-08T04:00:48;1.90;99.90
47590;DHT22;33316;52.298;9.056;2024-03-08T04:03:15;2.00;99.90
47590;DHT22;33316;52.298;9.056;2024-03-08T04:05:43;2.00;99.90
47590;DHT22;33316;52.298;9.056;2024-03-08T04:08:10;2.00;99.90
47590;DHT22;33316;52.298;9.056;2024-03-08T04:10:37;2.00;99.90
47590;DHT22;33316;52.298;9.056;2024-03-08T04:13:04;2.00;99.90
47590;DHT22;33316;52.298;9.056;2024-03-08T04:15:31;2.00;99.90
47590;DHT22;33316;52.298;9.056;2024-03-08T04:17:58;2.00;99.90
47590;DHT22;33316;52.298;9.056;2024-03-08T04:20:25;1.90;99.90
47590;DHT22;33316;52.298;9.056;2024-03-08T04:22:54;1.90;99.90
47590;DHT22;33316;52.298;9.056;2024-03-08T04:25:21;1.90;99.90
47590;DHT22;33316;52.298;9.056;2024-03-08T04:27:48;1.80;99.90
47590;DHT22;33316;52.298;9.056;2024-03-08T04:30:15;1.80;99.90
47590;DHT22;33316;52.298;9.056;2024-03-08T04:32:42;1.80;99.90
47590;DHT22;33316;52.298;9.056;2024-03-08T04:35:09;1.80;99.90
47590;DHT22;33316;52.298;9.056;2024-03-08T04:37:38;1.80;99.90
47590;DHT22;33316;52.298;9.056;2024-03-08T04:40:07;1.80;99.90
47590;DHT22;33316;52.298;9.056;2024-03-08T04:42:34;1.80;99.90
47590;DHT22;33316;52.298;9.056;2024-03-08T04:45:02;1.80;99.90
47590;DHT22;33316;52.298;9.056;2024-03-08T04:47:29;1.80;99.90
47590;DHT22;33316;52.298;9.056;2024-03-08T04:49:56;1.70;99.90
47590;DHT22;33316;52.298;9.056;2024-03-08T04:52:24;1.70;99.90
47590;DHT22;33316;52.298;9.056;2024-03-08T04:54:51;1.70;99.90
47590;DHT22;33316;52.298;9.056;2024-03-08T04:57:20;1.60;99.90
47590;DHT22;33316;52.298;9.056;2024-03-08T04:59:46;1.60;99.90
47590;DHT22;33316;52.298;9.056;2024-03-08T05:02:13;1.50;99.90
47590;DHT22;33316;52.298;9.056;2024-03-08T05:04:40;1.50;99.90
47590;DHT22;33316;52.298;9.056;2024-03-08T05:07:08;1.50;99.90
47590;DHT22;33316;52.298;9.056;2024-03-08T05:09:35;1.50;99.90
47590;DHT22;33316;52.298;9.056;2024-03-08T05:12:03;1.50;99.90
47590;DHT22;33316;52.298;9.056;2024-03-08T05:14:31;1.40;99.90
47590;DHT22;33316;52.298;9.056;2024-03-08T05:16:58;1.40;99.90
47590;DHT22;33316;52.298;9.056;2024-03-08T05:19:26;1.40;99.90
47590;DHT22;33316;52.298;9.056;2024-03-08T05:21:55;1.40;99.90
47590;DHT22;33316;52.298;9.056;2024-03-08T05:24:22;1.40;99.90
47590;DHT22;33316;52.298;9.056;2024-03-08T05:26:49;1.40;99.90
47590;DHT22;33316;52.298;9.056;2024-03-08T05:29:16;1.40;99.90
47590;DHT22;33316;52.298;9.056;2024-03-08T05:31:48;1.40;99.90
47590;DHT22;33316;52.298;9.056;2024-03-08T05:34:15;1.40;99.90
47590;DHT22;33316;52.298;9.056;2024-03-08T05:36:43;1.40;99.90
47590;DHT22;33316;52.298;9.056;2024-03-08T05:39:10;1.40;99.90
47590;DHT22;33316;52.298;9.056;2024-03-08T05:41:37;1.40;99.90
47590;DHT22;33316;52.298;9.056;2024-03-08T05:44:07;1.40;99.90
47590;DHT22;33316;52.298;9.056;2024-03-08T05:46:34;1.30;99.90
47590;DHT22;33316;52.298;9.056;2024-03-08T05:49:05;1.30;99.90
47590;DHT22;33316;52.298;9.056;2024-03-08T05:51:32;1.30;99.90
47590;DHT22;33316;52.298;9.056;2024-03-08T05:54:00;1.30;99.90
47590;DHT22;33316;52.298;9.056;2024-03-08T05:56:28;1.30;99.90
47590;DHT22;33316;52.298;9.056;2024-03-08T05:58:55;1.30;99.90
47590;DHT22;33316;52.298;9.056;2024-03-08T06:01:22;1.30;99.90
47590;DHT22;33316;52.298;9.056;2024-03-08T06:03:49;1.30;99.90
47590;DHT22;33316;52.298;9.056;2024-03-08T06:06:17;1.30;99.90
47590;DHT22;33316;52.298;9.056;2024-03-08T06:08:44;1.30;99.90
47590;DHT22;33316;52.298;9.056;2024-03-08T06:11:13;1.30;99.90
47590;DHT22;33316;52.298;9.056;2024-03-08T06:13:40;1.30;99.90
47590;DHT22;33316;52.298;9.056;2024-03-08T06:16:07;1.30;99.90
47590;DHT22;33316;52.298;9.056;2024-03-08T06:18:34;1.40;99.90
47590;DHT22;33316;52.298;9.056;2024-03-08T06:21:02;1.40;99.90
47590;DHT22;33316;52.298;9.056;2024-03-08T06:23:32;1.40;99.90
47590;DHT22;33316;52.298;9.056;2024-03-08T06:25:58;1.50;99.90
47590;DHT22;33316;52.298;9.056;2024-03-08T06:28:25;1.50;99.90
47590;DHT22;33316;52.298;9.056;2024-03-08T06:30:52;1.50;99.90
47590;DHT22;33316;52.298;9.056;2024-03-08T06:33:19;1.60;99.90
47590;DHT22;33316;52.298;9.056;2024-03-08T06:35:46;1.60;99.90
47590;DHT22;33316;52.298;9.056;2024-03-08T06:38:13;1.60;99.90
47590;DHT22;33316;52.298;9.056;2024-03-08T06:40:44;1.70;99.90
47590;DHT22;33316;52.298;9.056;2024-03-08T06:43:13;1.70;99.90
47590;DHT22;33316;52.298;9.056;2024-03-08T06:45:41;1.70;99.90
47590;DHT22;33316;52.298;9.056;2024-03-08T06:48:14;1.70;99.90
47590;DHT22;33316;52.298;9.056;2024-03-08T06:50:40;1.80;99.90
47590;DHT22;33316;52.298;9.056;2024-03-08T06:53:07;1.90;99.90
47590;DHT22;33316;52.298;9.056;2024-03-08T06:55:34;1.90;99.90
47590;DHT22;33316;52.298;9.056;2024-03-08T06:58:02;1.90;99.90
47590;DHT22;33316;52.298;9.056;2024-03-08T07:00:29;2.00;99.90
47590;DHT22;33316;52.298;9.056;2024-03-08T07:02:56;2.00;99.90
47590;DHT22;33316;52.298;9.056;2024-03-08T07:05:26;2.00;99.90
47590;DHT22;33316;52.298;9.056;2024-03-08T07:07:53;2.10;99.90
47590;DHT22;33316;52.298;9.056;2024-03-08T07:10:20;2.10;99.90
47590;DHT22;33316;52.298;9.056;2024-03-08T07:12:49;2.10;99.90
47590;DHT22;33316;52.298;9.056;2024-03-08T07:15:17;2.10;99.90
47590;DHT22;33316;52.298;9.056;2024-03-08T07:17:45;2.10;99.90
47590;DHT22;33316;52.298;9.056;2024-03-08T07:20:12;2.10;99.90
47590;DHT22;33316;52.298;9.056;2024-03-08T07:22:41;2.20;99.90
47590;DHT22;33316;52.298;9.056;2024-03-08T07:25:08;2.20;99.90
47590;DHT22;33316;52.298;9.056;2024-03-08T07:27:46;2.20;99.90
47590;DHT22;33316;52.298;9.056;2024-03-08T07:30:14;2.30;99.90
47590;DHT22;33316;52.298;9.056;2024-03-08T07:33:03;2.30;99.90
47590;DHT22;33316;52.298;9.056;2024-03-08T07:35:29;2.30;99.90
47590;DHT22;33316;52.298;9.056;2024-03-08T07:37:56;2.40;99.90
47590;DHT22;33316;52.298;9.056;2024-03-08T07:40:25;2.40;99.90
47590;DHT22;33316;52.298;9.056;2024-03-08T07:42:52;2.40;99.90
47590;DHT22;33316;52.298;9.056;2024-03-08T07:45:19;2.50;99.90
47590;DHT22;33316;52.298;9.056;2024-03-08T07:47:47;2.50;99.90
47590;DHT22;33316;52.298;9.056;2024-03-08T07:50:16;2.50;99.90
47590;DHT22;33316;52.298;9.056;2024-03-08T07:52:43;2.60;99.90
47590;DHT22;33316;52.298;9.056;2024-03-08T07:55:11;2.60;99.90
47590;DHT22;33316;52.298;9.056;2024-03-08T07:57:38;2.70;99.90
47590;DHT22;33316;52.298;9.056;2024-03-08T08:00:06;2.70;99.90
47590;DHT22;33316;52.298;9.056;2024-03-08T08:02:34;2.80;99.90
47590;DHT22;33316;52.298;9.056;2024-03-08T08:05:01;2.80;99.90
47590;DHT22;33316;52.298;9.056;2024-03-08T08:07:30;2.90;99.90
47590;DHT22;33316;52.298;9.056;2024-03-08T08:09:57;3.00;99.90
47590;DHT22;33316;52.298;9.056;2024-03-08T08:12:24;3.00;99.90
47590;DHT22;33316;52.298;9.056;2024-03-08T08:14:50;3.10;99.80
47590;DHT22;33316;52.298;9.056;2024-03-08T08:17:17;3.10;99.70
47590;DHT22;33316;52.298;9.056;2024-03-08T08:19:44;3.20;99.70
47590;DHT22;33316;52.298;9.056;2024-03-08T08:22:11;3.20;99.60
47590;DHT22;33316;52.298;9.056;2024-03-08T08:24:39;3.30;99.60
47590;DHT22;33316;52.298;9.056;2024-03-08T08:27:06;3.30;99.40
47590;DHT22;33316;52.298;9.056;2024-03-08T08:29:34;3.40;99.30
47590;DHT22;33316;52.298;9.056;2024-03-08T08:32:02;3.40;99.20
47590;DHT22;33316;52.298;9.056;2024-03-08T08:34:29;3.50;99.20
47590;DHT22;33316;52.298;9.056;2024-03-08T08:36:56;3.50;99.10
47590;DHT22;33316;52.298;9.056;2024-03-08T08:39:23;3.50;99.10
47590;DHT22;33316;52.298;9.056;2024-03-08T08:41:52;3.60;99.10
47590;DHT22;33316;52.298;9.056;2024-03-08T08:44:19;3.70;99.00
47590;DHT22;33316;52.298;9.056;2024-03-08T08:46:46;3.70;98.90
47590;DHT22;33316;52.298;9.056;2024-03-08T08:49:13;3.80;98.90
47590;DHT22;33316;52.298;9.056;2024-03-08T08:51:48;3.80;98.80
47590;DHT22;33316;52.298;9.056;2024-03-08T08:54:16;3.90;98.70
47590;DHT22;33316;52.298;9.056;2024-03-08T08:56:43;3.90;98.70
47590;DHT22;33316;52.298;9.056;2024-03-08T08:59:11;4.10;98.70
47590;DHT22;33316;52.298;9.056;2024-03-08T09:01:39;4.10;98.50
47590;DHT22;33316;52.298;9.056;2024-03-08T09:04:06;4.20;98.60
47590;DHT22;33316;52.298;9.056;2024-03-08T09:06:33;4.10;98.40
47590;DHT22;33316;52.298;9.056;2024-03-08T09:09:01;4.20;98.50
47590;DHT22;33316;52.298;9.056;2024-03-08T09:11:29;4.30;98.60
47590;DHT22;33316;52.298;9.056;2024-03-08T09:13:56;4.30;98.50
47590;DHT22;33316;52.298;9.056;2024-03-08T09:16:24;4.40;98.40
47590;DHT22;33316;52.298;9.056;2024-03-08T09:18:52;4.40;98.20
47590;DHT22;33316;52.298;9.056;2024-03-08T09:21:19;4.40;98.30
47590;DHT22;33316;52.298;9.056;2024-03-08T09:23:46;4.50;98.30
47590;DHT22;33316;52.298;9.056;2024-03-08T09:26:12;4.60;98.40
47590;DHT22;33316;52.298;9.056;2024-03-08T09:28:40;4.60;98.40
47590;DHT22;33316;52.298;9.056;2024-03-08T09:31:07;4.70;98.60
47590;DHT22;33316;52.298;9.056;2024-03-08T09:33:37;4.80;98.40
47590;DHT22;33316;52.298;9.056;2024-03-08T09:36:05;4.80;98.20
47590;DHT22;33316;52.298;9.056;2024-03-08T09:38:33;4.90;98.20
47590;DHT22;33316;52.298;9.056;2024-03-08T09:41:02;4.90;98.10
47590;DHT22;33316;52.298;9.056;2024-03-08T09:43:29;5.00;98.20
47590;DHT22;33316;52.298;9.056;2024-03-08T09:45:57;5.00;98.10
47590;DHT22;33316;52.298;9.056;2024-03-08T09:48:26;5.10;98.10
47590;DHT22;33316;52.298;9.056;2024-03-08T09:50:56;5.20;98.10
47590;DHT22;33316;52.298;9.056;2024-03-08T09:53:23;5.20;97.80
47590;DHT22;33316;52.298;9.056;2024-03-08T09:55:50;5.30;97.70
47590;DHT22;33316;52.298;9.056;2024-03-08T09:58:17;5.30;97.60
47590;DHT22;33316;52.298;9.056;2024-03-08T10:01:02;5.30;97.40
47590;DHT22;33316;52.298;9.056;2024-03-08T10:03:30;5.40;97.40
47590;DHT22;33316;52.298;9.056;2024-03-08T10:05:59;5.40;97.40
47590;DHT22;33316;52.298;9.056;2024-03-08T10:08:29;5.40;97.40
47590;DHT22;33316;52.298;9.056;2024-03-08T10:11:02;5.50;96.90
47590;DHT22;33316;52.298;9.056;2024-03-08T10:13:29;5.60;96.80
47590;DHT22;33316;52.298;9.056;2024-03-08T10:15:57;5.70;96.40
47590;DHT22;33316;52.298;9.056;2024-03-08T10:18:24;5.70;96.20
47590;DHT22;33316;52.298;9.056;2024-03-08T10:21:04;5.80;95.90
47590;DHT22;33316;52.298;9.056;2024-03-08T10:23:34;5.90;95.70
47590;DHT22;33316;52.298;9.056;2024-03-08T10:26:11;5.90;96.10
47590;DHT22;33316;52.298;9.056;2024-03-08T10:28:41;6.00;96.00
47590;DHT22;33316;52.298;9.056;2024-03-08T10:31:08;6.00;95.60
47590;DHT22;33316;52.298;9.056;2024-03-08T10:33:36;6.10;95.80
47590;DHT22;33316;52.298;9.056;2024-03-08T10:36:08;6.20;95.70
47590;DHT22;33316;52.298;9.056;2024-03-08T10:38:36;6.20;95.80
47590;DHT22;33316;52.298;9.056;2024-03-08T10:41:05;6.20;95.90
47590;DHT22;33316;52.298;9.056;2024-03-08T10:43:40;6.20;95.80
47590;DHT22;33316;52.298;9.056;2024-03-08T10:46:14;6.20;95.60
47590;DHT22;33316;52.298;9.056;2024-03-08T10:48:44;6.30;95.60
47590;DHT22;33316;52.298;9.056;2024-03-08T10:51:14;6.30;95.70
47590;DHT22;33316;52.298;9.056;2024-03-08T10:53:42;6.40;95.00
47590;DHT22;33316;52.298;9.056;2024-03-08T10:56:11;6.50;94.50
47590;DHT22;33316;52.298;9.056;2024-03-08T10:58:40;6.60;94.30
47590;DHT22;33316;52.298;9.056;2024-03-08T11:01:10;6.60;93.40
47590;DHT22;33316;52.298;9.056;2024-03-08T11:03:49;6.70;93.30
47590;DHT22;33316;52.298;9.056;2024-03-08T11:06:23;6.70;92.40
47590;DHT22;33316;52.298;9.056;2024-03-08T11:08:56;6.80;92.40
47590;DHT22;33316;52.298;9.056;2024-03-08T11:11:25;6.80;92.20
47590;DHT22;33316;52.298;9.056;2024-03-08T11:13:55;6.90;92.30
47590;DHT22;33316;52.298;9.056;2024-03-08T11:16:39;6.90;92.40
47590;DHT22;33316;52.298;9.056;2024-03-08T11:19:24;7.00;92.20
47590;DHT22;33316;52.298;9.056;2024-03-08T11:22:03;7.10;91.60
47590;DHT22;33316;52.298;9.056;2024-03-08T11:24:38;7.10;91.20
47590;DHT22;33316;52.298;9.056;2024-03-08T11:27:06;7.10;91.30
47590;DHT22;33316;52.298;9.056;2024-03-08T11:29:38;7.20;91.80
47590;DHT22;33316;52.298;9.056;2024-03-08T11:32:10;7.20;92.10
47590;DHT22;33316;52.298;9.056;2024-03-08T11:34:37;7.30;92.10
47590;DHT22;33316;52.298;9.056;2024-03-08T11:37:14;7.30;92.10
47590;DHT22;33316;52.298;9.056;2024-03-08T11:39:47;7.40;92.20
47590;DHT22;33316;52.298;9.056;2024-03-08T11:42:14;7.40;91.90
47590;DHT22;33316;52.298;9.056;2024-03-08T11:44:43;7.40;91.70
47590;DHT22;33316;52.298;9.056;2024-03-08T11:47:10;7.50;91.80
47590;DHT22;33316;52.298;9.056;2024-03-08T11:49:37;7.50;92.00
47590;DHT22;33316;52.298;9.056;2024-03-08T11:52:04;7.60;91.90
47590;DHT22;33316;52.298;9.056;2024-03-08T11:54:32;7.70;91.80
47590;DHT22;33316;52.298;9.056;2024-03-08T11:57:00;7.70;91.20
47590;DHT22;33316;52.298;9.056;2024-03-08T11:59:28;7.80;91.40
47590;DHT22;33316;52.298;9.056;2024-03-08T12:02:00;7.80;91.00
47590;DHT22;33316;52.298;9.056;2024-03-08T12:04:29;7.80;90.70
47590;DHT22;33316;52.298;9.056;2024-03-08T12:06:59;7.80;90.60
47590;DHT22;33316;52.298;9.056;2024-03-08T12:09:27;7.80;90.40
47590;DHT22;33316;52.298;9.056;2024-03-08T12:11:56;7.80;89.90
47590;DHT22;33316;52.298;9.056;2024-03-08T12:14:25;7.90;90.50
47590;DHT22;33316;52.298;9.056;2024-03-08T12:16:51;7.90;90.50
47590;DHT22;33316;52.298;9.056;2024-03-08T12:19:19;7.90;90.30
47590;DHT22;33316;52.298;9.056;2024-03-08T12:21:47;7.90;90.40
47590;DHT22;33316;52.298;9.056;2024-03-08T12:24:16;7.90;90.50
47590;DHT22;33316;52.298;9.056;2024-03-08T12:26:45;8.00;90.50
47590;DHT22;33316;52.298;9.056;2024-03-08T12:29:24;8.00;90.40
47590;DHT22;33316;52.298;9.056;2024-03-08T12:31:54;8.00;90.00
47590;DHT22;33316;52.298;9.056;2024-03-08T12:34:21;8.10;90.10
47590;DHT22;33316;52.298;9.056;2024-03-08T12:36:49;8.10;90.20
47590;DHT22;33316;52.298;9.056;2024-03-08T12:39:18;8.20;90.10
47590;DHT22;33316;52.298;9.056;2024-03-08T12:41:48;8.20;90.30
47590;DHT22;33316;52.298;9.056;2024-03-08T12:44:17;8.30;89.90
47590;DHT22;33316;52.298;9.056;2024-03-08T12:46:45;8.30;89.30
47590;DHT22;33316;52.298;9.056;2024-03-08T12:49:14;8.30;89.20
47590;DHT22;33316;52.298;9.056;2024-03-08T12:51:43;8.30;89.00
47590;DHT22;33316;52.298;9.056;2024-03-08T12:54:10;8.30;88.70
47590;DHT22;33316;52.298;9.056;2024-03-08T12:56:37;8.30;88.80
47590;DHT22;33316;52.298;9.056;2024-03-08T12:59:06;8.40;88.30
47590;DHT22;33316;52.298;9.056;2024-03-08T13:01:34;8.40;88.10
47590;DHT22;33316;52.298;9.056;2024-03-08T13:04:04;8.40;88.30
47590;DHT22;33316;52.298;9.056;2024-03-08T13:06:32;8.40;88.80
47590;DHT22;33316;52.298;9.056;2024-03-08T13:08:59;8.50;88.20
47590;DHT22;33316;52.298;9.056;2024-03-08T13:11:30;8.50;87.00
47590;DHT22;33316;52.298;9.056;2024-03-08T13:14:04;8.50;87.40
47590;DHT22;33316;52.298;9.056;2024-03-08T13:16:31;8.60;86.80
47590;DHT22;33316;52.298;9.056;2024-03-08T13:19:00;8.60;87.80
47590;DHT22;33316;52.298;9.056;2024-03-08T13:21:28;8.70;88.30
47590;DHT22;33316;52.298;9.056;2024-03-08T13:23:56;8.70;88.00
47590;DHT22;33316;52.298;9.056;2024-03-08T13:26:24;8.70;87.30
47590;DHT22;33316;52.298;9.056;2024-03-08T13:28:57;8.70;87.60
47590;DHT22;33316;52.298;9.056;2024-03-08T13:31:24;8.80;87.60
47590;DHT22;33316;52.298;9.056;2024-03-08T13:33:51;8.80;87.50
47590;DHT22;33316;52.298;9.056;2024-03-08T13:36:23;8.80;86.90
47590;DHT22;33316;52.298;9.056;2024-03-08T13:38:56;8.80;87.40
47590;DHT22;33316;52.298;9.056;2024-03-08T13:41:24;8.90;86.90
47590;DHT22;33316;52.298;9.056;2024-03-08T13:43:51;8.90;86.40
47590;DHT22;33316;52.298;9.056;2024-03-08T13:46:18;8.90;86.10
47590;DHT22;33316;52.298;9.056;2024-03-08T13:48:45;8.90;86.30
47590;DHT22;33316;52.298;9.056;2024-03-08T13:51:13;8.90;85.50
47590;DHT22;33316;52.298;9.056;2024-03-08T13:53:41;8.90;85.70
47590;DHT22;33316;52.298;9.056;2024-03-08T13:56:09;8.90;85.70
47590;DHT22;33316;52.298;9.056;2024-03-08T13:58:37;8.90;86.30
47590;DHT22;33316;52.298;9.056;2024-03-08T14:01:05;8.90;86.50
47590;DHT22;33316;52.298;9.056;2024-03-08T14:03:37;9.00;86.50
47590;DHT22;33316;52.298;9.056;2024-03-08T14:06:04;8.90;86.20
47590;DHT22;33316;52.298;9.056;2024-03-08T14:08:32;9.00;85.70
47590;DHT22;33316;52.298;9.056;2024-03-08T14:10:59;8.90;85.60
47590;DHT22;33316;52.298;9.056;2024-03-08T14:13:40;8.90;85.40
47590;DHT22;33316;52.298;9.056;2024-03-08T14:16:07;8.90;85.30
47590;DHT22;33316;52.298;9.056;2024-03-08T14:18:36;8.90;84.80
47590;DHT22;33316;52.298;9.056;2024-03-08T14:21:06;8.90;85.30
47590;DHT22;33316;52.298;9.056;2024-03-08T14:23:35;8.90;85.80
47590;DHT22;33316;52.298;9.056;2024-03-08T14:26:02;8.90;85.50
47590;DHT22;33316;52.298;9.056;2024-03-08T14:28:28;8.90;85.70
47590;DHT22;33316;52.298;9.056;2024-03-08T14:30:59;8.90;85.30
47590;DHT22;33316;52.298;9.056;2024-03-08T14:33:29;9.00;85.30
47590;DHT22;33316;52.298;9.056;2024-03-08T14:35:58;9.00;85.90
47590;DHT22;33316;52.298;9.056;2024-03-08T14:38:27;9.00;85.70
47590;DHT22;33316;52.298;9.056;2024-03-08T14:40:54;9.00;86.00
47590;DHT22;33316;52.298;9.056;2024-03-08T14:43:24;9.00;85.40
47590;DHT22;33316;52.298;9.056;2024-03-08T14:45:52;9.10;85.60
47590;DHT22;33316;52.298;9.056;2024-03-08T14:48:22;9.00;84.80
47590;DHT22;33316;52.298;9.056;2024-03-08T14:50:50;9.00;85.50
47590;DHT22;33316;52.298;9.056;2024-03-08T14:53:17;9.00;85.20
47590;DHT22;33316;52.298;9.056;2024-03-08T14:55:45;9.00;85.00
47590;DHT22;33316;52.298;9.056;2024-03-08T14:58:12;9.00;85.00
47590;DHT22;33316;52.298;9.056;2024-03-08T15:00:39;9.10;85.30
47590;DHT22;33316;52.298;9.056;2024-03-08T15:03:07;9.10;85.60
47590;DHT22;33316;52.298;9.056;2024-03-08T15:05:39;9.10;86.20
47590;DHT22;33316;52.298;9.056;2024-03-08T15:08:12;9.10;85.20
47590;DHT22;33316;52.298;9.056;2024-03-08T15:10:45;9.10;85.80
47590;DHT22;33316;52.298;9.056;2024-03-08T15:13:12;9.20;86.40
47590;DHT22;33316;52.298;9.056;2024-03-08T15:15:53;9.20;86.40
47590;DHT22;33316;52.298;9.056;2024-03-08T15:18:23;9.20;86.30
47590;DHT22;33316;52.298;9.056;2024-03-08T15:20:57;9.20;86.40
47590;DHT22;33316;52.298;9.056;2024-03-08T15:23:24;9.10;86.20
47590;DHT22;33316;52.298;9.056;2024-03-08T15:25:51;9.10;86.10
47590;DHT22;33316;52.298;9.056;2024-03-08T15:28:18;9.10;86.00
47590;DHT22;33316;52.298;9.056;2024-03-08T15:30:46;9.00;86.30
47590;DHT22;33316;52.298;9.056;2024-03-08T15:33:19;9.10;86.80
47590;DHT22;33316;52.298;9.056;2024-03-08T15:35:49;9.00;86.80
47590;DHT22;33316;52.298;9.056;2024-03-08T15:38:24;9.00;86.60
47590;DHT22;33316;52.298;9.056;2024-03-08T15:40:53;9.00;86.20
47590;DHT22;33316;52.298;9.056;2024-03-08T15:43:22;8.90;86.40
47590;DHT22;33316;52.298;9.056;2024-03-08T15:45:50;8.90;86.80
47590;DHT22;33316;52.298;9.056;2024-03-08T15:48:18;8.90;86.90
47590;DHT22;33316;52.298;9.056;2024-03-08T15:50:44;8.90;86.50
47590;DHT22;33316;52.298;9.056;2024-03-08T15:53:11;8.80;86.60